sensor_id;sensor_type;location;lat;lon;timestamp;P1;durP1;ratioP1;P2;durP2;ratioP2
66966;SDS011;53900;51.468;-2.586;2022-12-18T00:00:41;18.60;;;9.23;;
66966;SDS011;53900;51.468;-2.586;2022-12-18T00:03:07;28.43;;;10.27;;
66966;SDS011;53900;51.468;-2.586;2022-12-18T00:05:33;25.73;;;8.37;;
66966;SDS011;53900;51.468;-2.586;2022-12-18T00:07:58;28.13;;;11.67;;
66966;SDS011;53900;51.468;-2.586;2022-12-18T00:10:23;37.07;;;15.33;;
66966;SDS011;53900;51.468;-2.586;2022-12-18T00:12:49;32.07;;;13.63;;
66966;SDS011;53900;51.468;-2.586;2022-12-18T00:15:14;21.73;;;9.17;;
66966;SDS011;53900;51.468;-2.586;2022-12-18T00:17:40;13.60;;;6.83;;
66966;SDS011;53900;51.468;-2.586;2022-12-18T00:20:05;15.13;;;7.07;;
66966;SDS011;53900;51.468;-2.586;2022-12-18T00:22:31;19.10;;;6.90;;
66966;SDS011;53900;51.468;-2.586;2022-12-18T00:24:56;19.50;;;6.87;;
66966;SDS011;53900;51.468;-2.586;2022-12-18T00:27:22;13.23;;;6.70;;
66966;SDS011;53900;51.468;-2.586;2022-12-18T00:29:47;11.87;;;6.33;;
66966;SDS011;53900;51.468;-2.586;2022-12-18T00:32:14;13.97;;;6.53;;
66966;SDS011;53900;51.468;-2.586;2022-12-18T00:34:39;14.43;;;6.60;;
66966;SDS011;53900;51.468;-2.586;2022-12-18T00:37:04;13.93;;;6.40;;
66966;SDS011;53900;51.468;-2.586;2022-12-18T00:39:30;16.27;;;7.73;;
66966;SDS011;53900;51.468;-2.586;2022-12-18T00:41:55;21.57;;;8.47;;
66966;SDS011;53900;51.468;-2.586;2022-12-18T00:44:39;16.07;;;7.43;;
66966;SDS011;53900;51.468;-2.586;2022-12-18T00:47:04;16.97;;;7.43;;
66966;SDS011;53900;51.468;-2.586;2022-12-18T00:49:29;11.87;;;6.10;;
66966;SDS011;53900;51.468;-2.586;2022-12-18T00:51:55;13.47;;;6.40;;
66966;SDS011;53900;51.468;-2.586;2022-12-18T00:54:20;15.53;;;6.30;;
66966;SDS011;53900;51.468;-2.586;2022-12-18T00:56:45;12.70;;;5.87;;
66966;SDS011;53900;51.468;-2.586;2022-12-18T00:59:11;12.73;;;5.40;;
66966;SDS011;53900;51.468;-2.586;2022-12-18T01:01:36;15.40;;;5.80;;
66966;SDS011;53900;51.468;-2.586;2022-12-18T01:04:02;11.43;;;4.80;;
66966;SDS011;53900;51.468;-2.586;2022-12-18T01:06:28;11.27;;;4.77;;
66966;SDS011;53900;51.468;-2.586;2022-12-18T01:08:54;12.10;;;4.73;;
66966;SDS011;53900;51.468;-2.586;2022-12-18T01:11:20;11.23;;;5.20;;
66966;SDS011;53900;51.468;-2.586;2022-12-18T01:13:46;11.30;;;4.97;;
66966;SDS011;53900;51.468;-2.586;2022-12-18T01:16:12;8.50;;;4.50;;
66966;SDS011;53900;51.468;-2.586;2022-12-18T01:18:38;11.77;;;5.03;;
66966;SDS011;53900;51.468;-2.586;2022-12-18T01:21:07;11.50;;;4.83;;
66966;SDS011;53900;51.468;-2.586;2022-12-18T01:26:03;11.40;;;5.13;;
66966;SDS011;53900;51.468;-2.586;2022-12-18T01:28:30;11.87;;;5.23;;
66966;SDS011;53900;51.468;-2.586;2022-12-18T01:30:55;12.87;;;5.93;;
66966;SDS011;53900;51.468;-2.586;2022-12-18T01:33:20;14.83;;;5.53;;
66966;SDS011;53900;51.468;-2.586;2022-12-18T01:35:46;14.23;;;5.57;;
66966;SDS011;53900;51.468;-2.586;2022-12-18T01:38:11;9.93;;;5.30;;
66966;SDS011;53900;51.468;-2.586;2022-12-18T01:40:36;12.70;;;5.17;;
66966;SDS011;53900;51.468;-2.586;2022-12-18T01:43:02;9.43;;;4.90;;
66966;SDS011;53900;51.468;-2.586;2022-12-18T01:45:28;11.00;;;5.00;;
66966;SDS011;53900;51.468;-2.586;2022-12-18T01:47:56;10.33;;;4.93;;
66966;SDS011;53900;51.468;-2.586;2022-12-18T01:50:32;13.07;;;5.50;;
66966;SDS011;53900;51.468;-2.586;2022-12-18T01:53:06;9.10;;;5.10;;
66966;SDS011;53900;51.468;-2.586;2022-12-18T01:55:37;12.43;;;5.03;;
66966;SDS011;53900;51.468;-2.586;2022-12-18T02:00:31;6.83;;;4.40;;
66966;SDS011;53900;51.468;-2.586;2022-12-18T02:02:56;13.37;;;5.43;;
66966;SDS011;53900;51.468;-2.586;2022-12-18T02:08:21;10.57;;;5.40;;
66966;SDS011;53900;51.468;-2.586;2022-12-18T02:11:35;12.37;;;5.87;;
66966;SDS011;53900;51.468;-2.586;2022-12-18T02:13:53;12.97;;;5.20;;
66966;SDS011;53900;51.468;-2.586;2022-12-18T02:16:59;8.73;;;4.47;;
66966;SDS011;53900;51.468;-2.586;2022-12-18T02:22:49;7.93;;;4.57;;
66966;SDS011;53900;51.468;-2.586;2022-12-18T02:25:20;11.07;;;5.07;;
66966;SDS011;53900;51.468;-2.586;2022-12-18T02:28:09;13.20;;;4.97;;
66966;SDS011;53900;51.468;-2.586;2022-12-18T02:30:37;12.82;;;5.05;;
66966;SDS011;53900;51.468;-2.586;2022-12-18T02:33:04;9.60;;;5.03;;
66966;SDS011;53900;51.468;-2.586;2022-12-18T02:35:30;12.50;;;5.23;;
66966;SDS011;53900;51.468;-2.586;2022-12-18T02:37:56;14.77;;;5.97;;
66966;SDS011;53900;51.468;-2.586;2022-12-18T02:40:23;9.80;;;5.57;;
66966;SDS011;53900;51.468;-2.586;2022-12-18T02:42:49;11.37;;;5.93;;
66966;SDS011;53900;51.468;-2.586;2022-12-18T02:45:15;10.00;;;5.40;;
66966;SDS011;53900;51.468;-2.586;2022-12-18T02:47:41;11.60;;;5.47;;
66966;SDS011;53900;51.468;-2.586;2022-12-18T02:58:05;11.07;;;5.00;;
66966;SDS011;53900;51.468;-2.586;2022-12-18T03:00:39;11.25;;;4.90;;
66966;SDS011;53900;51.468;-2.586;2022-12-18T03:03:18;10.03;;;4.47;;
66966;SDS011;53900;51.468;-2.586;2022-12-18T03:05:53;16.83;;;4.90;;
66966;SDS011;53900;51.468;-2.586;2022-12-18T03:08:23;9.13;;;4.83;;
66966;SDS011;53900;51.468;-2.586;2022-12-18T03:10:54;11.17;;;4.97;;
66966;SDS011;53900;51.468;-2.586;2022-12-18T03:13:24;10.07;;;5.17;;
66966;SDS011;53900;51.468;-2.586;2022-12-18T03:16:18;12.07;;;5.37;;
66966;SDS011;53900;51.468;-2.586;2022-12-18T03:18:50;10.20;;;4.73;;
66966;SDS011;53900;51.468;-2.586;2022-12-18T03:21:23;7.40;;;4.90;;
66966;SDS011;53900;51.468;-2.586;2022-12-18T03:23:53;11.83;;;5.63;;
66966;SDS011;53900;51.468;-2.586;2022-12-18T03:26:19;10.77;;;5.07;;
66966;SDS011;53900;51.468;-2.586;2022-12-18T03:28:49;10.53;;;4.97;;
66966;SDS011;53900;51.468;-2.586;2022-12-18T03:31:16;8.45;;;4.57;;
66966;SDS011;53900;51.468;-2.586;2022-12-18T03:33:53;11.10;;;4.53;;
66966;SDS011;53900;51.468;-2.586;2022-12-18T03:36:22;9.25;;;4.70;;
66966;SDS011;53900;51.468;-2.586;2022-12-18T03:38:48;9.53;;;4.60;;
66966;SDS011;53900;51.468;-2.586;2022-12-18T03:41:26;9.93;;;5.20;;
66966;SDS011;53900;51.468;-2.586;2022-12-18T03:43:58;8.83;;;4.70;;
66966;SDS011;53900;51.468;-2.586;2022-12-18T03:49:46;10.23;;;5.17;;
66966;SDS011;53900;51.468;-2.586;2022-12-18T03:52:20;9.03;;;4.90;;
66966;SDS011;53900;51.468;-2.586;2022-12-18T03:55:01;11.40;;;5.17;;
66966;SDS011;53900;51.468;-2.586;2022-12-18T03:57:28;9.63;;;4.80;;
66966;SDS011;53900;51.468;-2.586;2022-12-18T03:59:55;17.90;;;5.03;;
66966;SDS011;53900;51.468;-2.586;2022-12-18T04:02:22;9.77;;;4.60;;
66966;SDS011;53900;51.468;-2.586;2022-12-18T04:04:50;13.83;;;5.03;;
66966;SDS011;53900;51.468;-2.586;2022-12-18T04:07:17;13.83;;;5.23;;
66966;SDS011;53900;51.468;-2.586;2022-12-18T04:09:43;11.23;;;5.60;;
66966;SDS011;53900;51.468;-2.586;2022-12-18T04:12:10;11.30;;;5.00;;
66966;SDS011;53900;51.468;-2.586;2022-12-18T04:14:36;10.03;;;5.37;;
66966;SDS011;53900;51.468;-2.586;2022-12-18T04:17:01;11.73;;;4.97;;
66966;SDS011;53900;51.468;-2.586;2022-12-18T04:19:27;9.20;;;4.63;;
66966;SDS011;53900;51.468;-2.586;2022-12-18T04:21:53;9.60;;;5.17;;
66966;SDS011;53900;51.468;-2.586;2022-12-18T04:24:18;12.53;;;5.33;;
66966;SDS011;53900;51.468;-2.586;2022-12-18T04:26:44;11.37;;;5.87;;
66966;SDS011;53900;51.468;-2.586;2022-12-18T04:29:09;12.90;;;5.53;;
66966;SDS011;53900;51.468;-2.586;2022-12-18T04:31:34;12.43;;;6.10;;
66966;SDS011;53900;51.468;-2.586;2022-12-18T04:34:00;11.83;;;5.17;;
66966;SDS011;53900;51.468;-2.586;2022-12-18T04:36:25;12.97;;;5.30;;
66966;SDS011;53900;51.468;-2.586;2022-12-18T04:38:51;10.70;;;6.17;;
66966;SDS011;53900;51.468;-2.586;2022-12-18T04:41:16;10.90;;;5.17;;
66966;SDS011;53900;51.468;-2.586;2022-12-18T04:43:41;11.97;;;6.23;;
66966;SDS011;53900;51.468;-2.586;2022-12-18T04:46:07;12.83;;;5.70;;
66966;SDS011;53900;51.468;-2.586;2022-12-18T04:48:33;13.30;;;6.43;;
66966;SDS011;53900;51.468;-2.586;2022-12-18T04:50:59;12.67;;;6.43;;
66966;SDS011;53900;51.468;-2.586;2022-12-18T04:53:24;14.87;;;6.37;;
66966;SDS011;53900;51.468;-2.586;2022-12-18T04:55:49;19.30;;;5.93;;
66966;SDS011;53900;51.468;-2.586;2022-12-18T04:58:15;12.90;;;6.13;;
66966;SDS011;53900;51.468;-2.586;2022-12-18T05:00:41;14.27;;;6.10;;
66966;SDS011;53900;51.468;-2.586;2022-12-18T05:03:06;10.13;;;5.77;;
66966;SDS011;53900;51.468;-2.586;2022-12-18T05:05:31;11.93;;;6.20;;
66966;SDS011;53900;51.468;-2.586;2022-12-18T05:07:59;16.07;;;6.60;;
66966;SDS011;53900;51.468;-2.586;2022-12-18T05:10:25;17.70;;;7.60;;
66966;SDS011;53900;51.468;-2.586;2022-12-18T05:12:50;17.33;;;7.47;;
66966;SDS011;53900;51.468;-2.586;2022-12-18T05:15:33;20.83;;;6.90;;
66966;SDS011;53900;51.468;-2.586;2022-12-18T05:17:59;10.80;;;6.43;;
66966;SDS011;53900;51.468;-2.586;2022-12-18T05:20:25;13.53;;;7.47;;
66966;SDS011;53900;51.468;-2.586;2022-12-18T05:22:51;14.27;;;6.87;;
66966;SDS011;53900;51.468;-2.586;2022-12-18T05:25:16;16.77;;;6.97;;
66966;SDS011;53900;51.468;-2.586;2022-12-18T05:27:42;12.63;;;6.77;;
66966;SDS011;53900;51.468;-2.586;2022-12-18T05:30:07;15.40;;;7.13;;
66966;SDS011;53900;51.468;-2.586;2022-12-18T05:32:33;19.80;;;7.40;;
66966;SDS011;53900;51.468;-2.586;2022-12-18T05:34:59;17.60;;;7.27;;
66966;SDS011;53900;51.468;-2.586;2022-12-18T05:37:24;15.53;;;7.03;;
66966;SDS011;53900;51.468;-2.586;2022-12-18T05:39:50;17.20;;;7.83;;
66966;SDS011;53900;51.468;-2.586;2022-12-18T05:42:15;18.30;;;6.70;;
66966;SDS011;53900;51.468;-2.586;2022-12-18T05:44:40;19.53;;;7.37;;
66966;SDS011;53900;51.468;-2.586;2022-12-18T05:47:06;16.37;;;7.33;;
66966;SDS011;53900;51.468;-2.586;2022-12-18T05:49:31;14.93;;;7.20;;
66966;SDS011;53900;51.468;-2.586;2022-12-18T05:51:56;12.83;;;7.00;;
66966;SDS011;53900;51.468;-2.586;2022-12-18T05:54:22;18.63;;;7.30;;
66966;SDS011;53900;51.468;-2.586;2022-12-18T05:56:47;13.17;;;7.47;;
66966;SDS011;53900;51.468;-2.586;2022-12-18T05:59:12;15.07;;;7.37;;
66966;SDS011;53900;51.468;-2.586;2022-12-18T06:01:37;18.00;;;8.77;;
66966;SDS011;53900;51.468;-2.586;2022-12-18T06:04:03;13.57;;;7.37;;
66966;SDS011;53900;51.468;-2.586;2022-12-18T06:06:28;16.03;;;7.73;;
66966;SDS011;53900;51.468;-2.586;2022-12-18T06:08:54;20.10;;;8.13;;
66966;SDS011;53900;51.468;-2.586;2022-12-18T06:11:21;18.67;;;7.57;;
66966;SDS011;53900;51.468;-2.586;2022-12-18T06:13:51;20.83;;;8.57;;
66966;SDS011;53900;51.468;-2.586;2022-12-18T06:16:20;15.63;;;7.07;;
66966;SDS011;53900;51.468;-2.586;2022-12-18T06:18:46;19.13;;;8.77;;
66966;SDS011;53900;51.468;-2.586;2022-12-18T06:21:11;16.50;;;8.07;;
66966;SDS011;53900;51.468;-2.586;2022-12-18T06:23:36;16.07;;;8.40;;
66966;SDS011;53900;51.468;-2.586;2022-12-18T06:26:03;18.27;;;8.77;;
66966;SDS011;53900;51.468;-2.586;2022-12-18T06:28:32;20.42;;;8.68;;
66966;SDS011;53900;51.468;-2.586;2022-12-18T06:30:57;16.77;;;8.47;;
66966;SDS011;53900;51.468;-2.586;2022-12-18T06:33:25;17.53;;;8.43;;
66966;SDS011;53900;51.468;-2.586;2022-12-18T06:35:51;18.10;;;8.20;;
66966;SDS011;53900;51.468;-2.586;2022-12-18T06:38:17;18.47;;;9.03;;
66966;SDS011;53900;51.468;-2.586;2022-12-18T06:40:42;17.15;;;8.35;;
66966;SDS011;53900;51.468;-2.586;2022-12-18T06:43:08;19.40;;;8.40;;
66966;SDS011;53900;51.468;-2.586;2022-12-18T06:45:33;14.10;;;8.30;;
66966;SDS011;53900;51.468;-2.586;2022-12-18T06:47:58;17.98;;;8.40;;
66966;SDS011;53900;51.468;-2.586;2022-12-18T06:50:24;22.85;;;8.20;;
66966;SDS011;53900;51.468;-2.586;2022-12-18T06:52:49;16.75;;;9.48;;
66966;SDS011;53900;51.468;-2.586;2022-12-18T06:55:14;18.33;;;8.88;;
66966;SDS011;53900;51.468;-2.586;2022-12-18T06:57:40;21.13;;;8.63;;
66966;SDS011;53900;51.468;-2.586;2022-12-18T07:00:05;20.00;;;8.30;;
66966;SDS011;53900;51.468;-2.586;2022-12-18T07:02:31;16.27;;;8.73;;
66966;SDS011;53900;51.468;-2.586;2022-12-18T07:04:57;19.27;;;9.00;;
66966;SDS011;53900;51.468;-2.586;2022-12-18T07:07:22;19.37;;;8.20;;
66966;SDS011;53900;51.468;-2.586;2022-12-18T07:09:49;29.93;;;13.90;;
66966;SDS011;53900;51.468;-2.586;2022-12-18T07:12:15;24.10;;;9.80;;
66966;SDS011;53900;51.468;-2.586;2022-12-18T07:14:40;18.23;;;8.03;;
66966;SDS011;53900;51.468;-2.586;2022-12-18T07:17:05;22.00;;;8.90;;
66966;SDS011;53900;51.468;-2.586;2022-12-18T07:19:31;15.60;;;8.03;;
66966;SDS011;53900;51.468;-2.586;2022-12-18T07:21:56;17.30;;;8.13;;
66966;SDS011;53900;51.468;-2.586;2022-12-18T07:24:21;19.60;;;8.47;;
66966;SDS011;53900;51.468;-2.586;2022-12-18T07:26:47;21.20;;;8.77;;
66966;SDS011;53900;51.468;-2.586;2022-12-18T07:29:12;17.48;;;8.18;;
66966;SDS011;53900;51.468;-2.586;2022-12-18T07:31:38;20.33;;;8.37;;
66966;SDS011;53900;51.468;-2.586;2022-12-18T07:34:03;15.32;;;7.70;;
66966;SDS011;53900;51.468;-2.586;2022-12-18T07:36:28;17.50;;;8.40;;
66966;SDS011;53900;51.468;-2.586;2022-12-18T07:38:54;15.23;;;8.20;;
66966;SDS011;53900;51.468;-2.586;2022-12-18T07:41:19;20.37;;;8.33;;
66966;SDS011;53900;51.468;-2.586;2022-12-18T07:43:45;21.40;;;8.45;;
66966;SDS011;53900;51.468;-2.586;2022-12-18T07:46:11;18.70;;;8.70;;
66966;SDS011;53900;51.468;-2.586;2022-12-18T07:48:38;18.38;;;8.82;;
66966;SDS011;53900;51.468;-2.586;2022-12-18T07:51:05;16.33;;;8.52;;
66966;SDS011;53900;51.468;-2.586;2022-12-18T07:53:32;16.42;;;7.95;;
66966;SDS011;53900;51.468;-2.586;2022-12-18T07:55:58;22.70;;;8.50;;
66966;SDS011;53900;51.468;-2.586;2022-12-18T07:58:24;21.73;;;8.52;;
66966;SDS011;53900;51.468;-2.586;2022-12-18T08:00:49;18.15;;;7.95;;
66966;SDS011;53900;51.468;-2.586;2022-12-18T08:03:15;14.90;;;7.82;;
66966;SDS011;53900;51.468;-2.586;2022-12-18T08:05:40;15.45;;;7.32;;
66966;SDS011;53900;51.468;-2.586;2022-12-18T08:08:06;15.13;;;7.20;;
66966;SDS011;53900;51.468;-2.586;2022-12-18T08:10:31;15.80;;;7.57;;
66966;SDS011;53900;51.468;-2.586;2022-12-18T08:12:56;13.77;;;7.55;;
66966;SDS011;53900;51.468;-2.586;2022-12-18T08:15:22;19.00;;;7.68;;
66966;SDS011;53900;51.468;-2.586;2022-12-18T08:17:47;17.15;;;7.22;;
66966;SDS011;53900;51.468;-2.586;2022-12-18T08:20:12;17.13;;;7.32;;
66966;SDS011;53900;51.468;-2.586;2022-12-18T08:22:39;15.55;;;7.50;;
66966;SDS011;53900;51.468;-2.586;2022-12-18T08:25:06;17.73;;;8.10;;
66966;SDS011;53900;51.468;-2.586;2022-12-18T08:27:31;16.95;;;8.23;;
66966;SDS011;53900;51.468;-2.586;2022-12-18T08:29:57;21.40;;;8.55;;
66966;SDS011;53900;51.468;-2.586;2022-12-18T08:32:23;15.27;;;7.72;;
66966;SDS011;53900;51.468;-2.586;2022-12-18T08:34:48;13.15;;;6.22;;
66966;SDS011;53900;51.468;-2.586;2022-12-18T08:37:14;21.75;;;7.40;;
66966;SDS011;53900;51.468;-2.586;2022-12-18T08:39:39;16.95;;;6.95;;
66966;SDS011;53900;51.468;-2.586;2022-12-18T08:42:04;15.45;;;7.30;;
66966;SDS011;53900;51.468;-2.586;2022-12-18T08:44:48;15.45;;;6.72;;
66966;SDS011;53900;51.468;-2.586;2022-12-18T08:47:14;12.93;;;6.50;;
66966;SDS011;53900;51.468;-2.586;2022-12-18T08:49:39;17.33;;;7.60;;
66966;SDS011;53900;51.468;-2.586;2022-12-18T08:52:05;14.93;;;7.05;;
66966;SDS011;53900;51.468;-2.586;2022-12-18T08:54:30;14.23;;;6.72;;
66966;SDS011;53900;51.468;-2.586;2022-12-18T08:56:56;18.17;;;7.25;;
66966;SDS011;53900;51.468;-2.586;2022-12-18T08:59:21;15.50;;;7.68;;
66966;SDS011;53900;51.468;-2.586;2022-12-18T09:01:48;18.88;;;7.30;;
66966;SDS011;53900;51.468;-2.586;2022-12-18T09:04:13;18.45;;;7.47;;
66966;SDS011;53900;51.468;-2.586;2022-12-18T09:06:39;17.25;;;7.35;;
66966;SDS011;53900;51.468;-2.586;2022-12-18T09:09:04;15.25;;;7.07;;
66966;SDS011;53900;51.468;-2.586;2022-12-18T09:11:30;20.45;;;7.00;;
66966;SDS011;53900;51.468;-2.586;2022-12-18T09:13:56;15.40;;;7.30;;
66966;SDS011;53900;51.468;-2.586;2022-12-18T09:16:22;15.25;;;6.53;;
66966;SDS011;53900;51.468;-2.586;2022-12-18T09:18:48;16.65;;;6.82;;
66966;SDS011;53900;51.468;-2.586;2022-12-18T09:21:15;15.13;;;6.63;;
66966;SDS011;53900;51.468;-2.586;2022-12-18T09:23:42;13.90;;;6.82;;
66966;SDS011;53900;51.468;-2.586;2022-12-18T09:26:08;18.25;;;7.03;;
66966;SDS011;53900;51.468;-2.586;2022-12-18T09:28:33;12.32;;;6.07;;
66966;SDS011;53900;51.468;-2.586;2022-12-18T09:30:59;15.68;;;6.65;;
66966;SDS011;53900;51.468;-2.586;2022-12-18T09:33:29;12.10;;;5.95;;
66966;SDS011;53900;51.468;-2.586;2022-12-18T09:35:54;14.15;;;6.63;;
66966;SDS011;53900;51.468;-2.586;2022-12-18T09:38:19;18.02;;;7.10;;
66966;SDS011;53900;51.468;-2.586;2022-12-18T09:40:56;18.52;;;6.65;;
66966;SDS011;53900;51.468;-2.586;2022-12-18T09:43:27;13.55;;;6.25;;
66966;SDS011;53900;51.468;-2.586;2022-12-18T09:46:07;14.82;;;6.53;;
66966;SDS011;53900;51.468;-2.586;2022-12-18T09:48:36;16.20;;;6.80;;
66966;SDS011;53900;51.468;-2.586;2022-12-18T09:51:08;15.95;;;6.68;;
66966;SDS011;53900;51.468;-2.586;2022-12-18T09:53:37;11.65;;;6.63;;
66966;SDS011;53900;51.468;-2.586;2022-12-18T09:56:03;15.75;;;7.40;;
66966;SDS011;53900;51.468;-2.586;2022-12-18T09:58:39;17.02;;;7.30;;
66966;SDS011;53900;51.468;-2.586;2022-12-18T10:01:13;14.40;;;6.65;;
66966;SDS011;53900;51.468;-2.586;2022-12-18T10:03:41;13.20;;;6.50;;
66966;SDS011;53900;51.468;-2.586;2022-12-18T10:06:13;16.80;;;6.43;;
66966;SDS011;53900;51.468;-2.586;2022-12-18T10:08:49;14.82;;;6.57;;
66966;SDS011;53900;51.468;-2.586;2022-12-18T10:14:19;17.55;;;6.53;;
66966;SDS011;53900;51.468;-2.586;2022-12-18T10:19:30;12.65;;;6.47;;
66966;SDS011;53900;51.468;-2.586;2022-12-18T10:24:52;13.55;;;6.85;;
66966;SDS011;53900;51.468;-2.586;2022-12-18T10:27:23;15.77;;;7.00;;
66966;SDS011;53900;51.468;-2.586;2022-12-18T10:29:50;17.27;;;7.70;;
66966;SDS011;53900;51.468;-2.586;2022-12-18T10:32:17;15.52;;;6.80;;
66966;SDS011;53900;51.468;-2.586;2022-12-18T10:34:45;14.00;;;6.72;;
66966;SDS011;53900;51.468;-2.586;2022-12-18T10:37:13;14.95;;;7.00;;
66966;SDS011;53900;51.468;-2.586;2022-12-18T10:39:41;14.40;;;7.95;;
66966;SDS011;53900;51.468;-2.586;2022-12-18T10:42:09;15.27;;;7.55;;
66966;SDS011;53900;51.468;-2.586;2022-12-18T10:44:37;19.50;;;8.55;;
66966;SDS011;53900;51.468;-2.586;2022-12-18T10:47:04;17.83;;;7.38;;
66966;SDS011;53900;51.468;-2.586;2022-12-18T10:49:31;13.77;;;7.35;;
66966;SDS011;53900;51.468;-2.586;2022-12-18T10:52:07;16.77;;;7.75;;
66966;SDS011;53900;51.468;-2.586;2022-12-18T10:54:39;15.18;;;8.43;;
66966;SDS011;53900;51.468;-2.586;2022-12-18T10:57:15;22.73;;;7.95;;
66966;SDS011;53900;51.468;-2.586;2022-12-18T11:02:43;20.83;;;8.45;;
66966;SDS011;53900;51.468;-2.586;2022-12-18T11:08:07;14.90;;;8.48;;
66966;SDS011;53900;51.468;-2.586;2022-12-18T11:10:46;16.10;;;7.03;;
66966;SDS011;53900;51.468;-2.586;2022-12-18T11:13:18;13.75;;;7.70;;
66966;SDS011;53900;51.468;-2.586;2022-12-18T11:15:46;14.40;;;8.18;;
66966;SDS011;53900;51.468;-2.586;2022-12-18T11:18:28;18.95;;;8.27;;
66966;SDS011;53900;51.468;-2.586;2022-12-18T11:20:57;17.50;;;8.45;;
66966;SDS011;53900;51.468;-2.586;2022-12-18T11:23:25;17.10;;;7.45;;
66966;SDS011;53900;51.468;-2.586;2022-12-18T11:26:08;15.60;;;8.43;;
66966;SDS011;53900;51.468;-2.586;2022-12-18T11:28:38;18.45;;;8.43;;
66966;SDS011;53900;51.468;-2.586;2022-12-18T11:31:22;18.67;;;8.25;;
66966;SDS011;53900;51.468;-2.586;2022-12-18T11:36:44;17.05;;;8.10;;
66966;SDS011;53900;51.468;-2.586;2022-12-18T11:39:30;18.70;;;8.60;;
66966;SDS011;53900;51.468;-2.586;2022-12-18T11:42:40;23.42;;;9.27;;
66966;SDS011;53900;51.468;-2.586;2022-12-18T11:45:15;19.10;;;8.52;;
66966;SDS011;53900;51.468;-2.586;2022-12-18T11:50:24;18.83;;;8.77;;
66966;SDS011;53900;51.468;-2.586;2022-12-18T11:53:02;12.32;;;7.47;;
66966;SDS011;53900;51.468;-2.586;2022-12-18T11:55:30;14.60;;;8.70;;
66966;SDS011;53900;51.468;-2.586;2022-12-18T11:58:04;17.00;;;8.13;;
66966;SDS011;53900;51.468;-2.586;2022-12-18T12:00:36;18.85;;;8.52;;
66966;SDS011;53900;51.468;-2.586;2022-12-18T12:05:45;16.65;;;8.43;;
66966;SDS011;53900;51.468;-2.586;2022-12-18T12:16:36;18.77;;;8.23;;
66966;SDS011;53900;51.468;-2.586;2022-12-18T12:21:56;12.68;;;6.95;;
66966;SDS011;53900;51.468;-2.586;2022-12-18T12:27:37;12.82;;;6.72;;
66966;SDS011;53900;51.468;-2.586;2022-12-18T12:38:22;16.00;;;6.50;;
66966;SDS011;53900;51.468;-2.586;2022-12-18T12:40:56;13.23;;;5.53;;
66966;SDS011;53900;51.468;-2.586;2022-12-18T12:46:00;8.35;;;5.45;;
66966;SDS011;53900;51.468;-2.586;2022-12-18T12:51:17;8.05;;;4.68;;
66966;SDS011;53900;51.468;-2.586;2022-12-18T12:53:45;9.13;;;4.90;;
66966;SDS011;53900;51.468;-2.586;2022-12-18T12:56:12;7.68;;;5.20;;
66966;SDS011;53900;51.468;-2.586;2022-12-18T13:01:19;8.95;;;4.82;;
66966;SDS011;53900;51.468;-2.586;2022-12-18T13:04:08;8.20;;;4.70;;
66966;SDS011;53900;51.468;-2.586;2022-12-18T13:09:21;7.55;;;3.97;;
66966;SDS011;53900;51.468;-2.586;2022-12-18T13:11:46;6.32;;;3.60;;
66966;SDS011;53900;51.468;-2.586;2022-12-18T13:19:40;6.70;;;3.50;;
66966;SDS011;53900;51.468;-2.586;2022-12-18T13:22:12;6.50;;;3.85;;
66966;SDS011;53900;51.468;-2.586;2022-12-18T13:25:00;6.30;;;3.50;;
66966;SDS011;53900;51.468;-2.586;2022-12-18T13:38:33;3.78;;;2.53;;
66966;SDS011;53900;51.468;-2.586;2022-12-18T13:43:46;4.70;;;2.90;;
66966;SDS011;53900;51.468;-2.586;2022-12-18T13:46:28;4.70;;;2.60;;
66966;SDS011;53900;51.468;-2.586;2022-12-18T13:49:02;3.63;;;2.60;;
66966;SDS011;53900;51.468;-2.586;2022-12-18T13:51:30;4.38;;;2.60;;
66966;SDS011;53900;51.468;-2.586;2022-12-18T13:53:59;4.30;;;2.90;;
66966;SDS011;53900;51.468;-2.586;2022-12-18T13:56:26;4.82;;;2.70;;
66966;SDS011;53900;51.468;-2.586;2022-12-18T14:01:50;3.90;;;2.50;;
66966;SDS011;53900;51.468;-2.586;2022-12-18T14:06:46;7.13;;;3.03;;
66966;SDS011;53900;51.468;-2.586;2022-12-18T14:09:13;3.95;;;2.25;;
66966;SDS011;53900;51.468;-2.586;2022-12-18T14:11:40;3.47;;;2.40;;
66966;SDS011;53900;51.468;-2.586;2022-12-18T14:14:06;4.53;;;2.13;;
66966;SDS011;53900;51.468;-2.586;2022-12-18T14:16:32;7.47;;;2.20;;
66966;SDS011;53900;51.468;-2.586;2022-12-18T14:18:59;3.50;;;1.83;;
66966;SDS011;53900;51.468;-2.586;2022-12-18T14:21:28;3.58;;;1.42;;
66966;SDS011;53900;51.468;-2.586;2022-12-18T14:26:46;1.27;;;1.17;;
66966;SDS011;53900;51.468;-2.586;2022-12-18T14:29:23;3.03;;;1.10;;
66966;SDS011;53900;51.468;-2.586;2022-12-18T14:34:46;1.02;;;1.00;;
66966;SDS011;53900;51.468;-2.586;2022-12-18T14:37:13;1.70;;;0.95;;
66966;SDS011;53900;51.468;-2.586;2022-12-18T14:39:40;1.52;;;1.10;;
66966;SDS011;53900;51.468;-2.586;2022-12-18T14:42:17;1.20;;;0.80;;
66966;SDS011;53900;51.468;-2.586;2022-12-18T14:44:42;1.23;;;0.95;;
66966;SDS011;53900;51.468;-2.586;2022-12-18T14:47:12;1.08;;;0.90;;
66966;SDS011;53900;51.468;-2.586;2022-12-18T14:49:39;1.30;;;1.05;;
66966;SDS011;53900;51.468;-2.586;2022-12-18T14:52:13;3.60;;;1.67;;
66966;SDS011;53900;51.468;-2.586;2022-12-18T14:54:46;5.57;;;2.10;;
66966;SDS011;53900;51.468;-2.586;2022-12-18T14:57:22;4.82;;;2.17;;
66966;SDS011;53900;51.468;-2.586;2022-12-18T14:59:47;4.15;;;1.98;;
66966;SDS011;53900;51.468;-2.586;2022-12-18T15:02:16;4.20;;;2.00;;
66966;SDS011;53900;51.468;-2.586;2022-12-18T15:04:43;2.28;;;1.33;;
66966;SDS011;53900;51.468;-2.586;2022-12-18T15:07:14;6.40;;;2.30;;
66966;SDS011;53900;51.468;-2.586;2022-12-18T15:10:00;3.30;;;1.80;;
66966;SDS011;53900;51.468;-2.586;2022-12-18T15:15:02;1.90;;;1.40;;
66966;SDS011;53900;51.468;-2.586;2022-12-18T15:17:28;2.38;;;1.45;;
66966;SDS011;53900;51.468;-2.586;2022-12-18T15:19:58;3.88;;;1.90;;
66966;SDS011;53900;51.468;-2.586;2022-12-18T15:22:29;5.18;;;2.00;;
66966;SDS011;53900;51.468;-2.586;2022-12-18T15:24:56;3.35;;;1.42;;
66966;SDS011;53900;51.468;-2.586;2022-12-18T15:27:33;2.53;;;1.60;;
66966;SDS011;53900;51.468;-2.586;2022-12-18T15:32:34;1.98;;;1.40;;
66966;SDS011;53900;51.468;-2.586;2022-12-18T15:35:07;4.85;;;2.70;;
66966;SDS011;53900;51.468;-2.586;2022-12-18T15:37:39;3.40;;;2.35;;
66966;SDS011;53900;51.468;-2.586;2022-12-18T15:40:05;6.63;;;2.40;;
66966;SDS011;53900;51.468;-2.586;2022-12-18T15:42:32;3.22;;;1.95;;
66966;SDS011;53900;51.468;-2.586;2022-12-18T15:45:16;3.97;;;1.48;;
66966;SDS011;53900;51.468;-2.586;2022-12-18T15:47:41;2.35;;;1.58;;
66966;SDS011;53900;51.468;-2.586;2022-12-18T15:50:07;3.30;;;1.60;;
66966;SDS011;53900;51.468;-2.586;2022-12-18T15:52:35;6.13;;;3.17;;
66966;SDS011;53900;51.468;-2.586;2022-12-18T15:55:10;10.30;;;4.00;;
66966;SDS011;53900;51.468;-2.586;2022-12-18T15:57:59;8.63;;;3.72;;
66966;SDS011;53900;51.468;-2.586;2022-12-18T16:00:25;5.10;;;2.30;;
66966;SDS011;53900;51.468;-2.586;2022-12-18T16:02:50;6.05;;;2.25;;
66966;SDS011;53900;51.468;-2.586;2022-12-18T16:05:17;9.43;;;5.90;;
66966;SDS011;53900;51.468;-2.586;2022-12-18T16:07:44;10.73;;;5.65;;
66966;SDS011;53900;51.468;-2.586;2022-12-18T16:10:09;3.15;;;2.10;;
66966;SDS011;53900;51.468;-2.586;2022-12-18T16:12:35;7.57;;;4.15;;
66966;SDS011;53900;51.468;-2.586;2022-12-18T16:15:01;6.07;;;3.65;;
66966;SDS011;53900;51.468;-2.586;2022-12-18T16:17:26;12.25;;;5.35;;
66966;SDS011;53900;51.468;-2.586;2022-12-18T16:19:52;6.05;;;3.38;;
66966;SDS011;53900;51.468;-2.586;2022-12-18T16:22:21;6.65;;;4.18;;
66966;SDS011;53900;51.468;-2.586;2022-12-18T16:24:51;6.30;;;3.60;;